Scroll down
FLIGHT INFORMATION
Alaska Airlines

ASA9722

At Arrival Gate

KSAN
 KLAX
DATE: 2019-11-24
GATE: 16
GATE DEPARTURE: 19:06
TAKEOFF: 19:18
DATE: 2019-11-24
GATE:  -
LANDING: 19:44
GATE ARRIVAL: 19:49
FLIGHT DATA
Crew: 
Speed: 
340 kts
Altitude: 
10,017 ft
Stage Length: 
94.9 nm
Block Time: 
0.6 hrs
Flight Time: 
0.4 hrs
Fuel Used: 
3,440 lb
Cleared Route: 
TRACK DATA
50,000 ft 1,000 kts
AIRCRAFT INFO AND CUMULATIVE STATS
Aircraft Type: 
B739SSW
Registration: 
SELCAL: 
MSN/LN: 
33679 / 1344
Operator: 
Total Flights: 
14
Total Block Time: 
20 hrs
Total Flight Time: 
16.9 hrs
Total Fuel Used: 
142,026 lb
DATALINK LOG | Newest first | Current as of: 2022-12-06 06:48:19
LABEL SEQUENCE CONTENT Dn/Up
QD503719:49 5.5▼ Dn
QC442419:44▼ Dn
462120/OV SLI /TM 1921 /FL060 /TP B739 /SK SCT /TA 10 /TB LGT /RM TEST▼ Dn
QB182719:18▼ Dn
QA073519:06 9▼ Dn
2U0317KSAN 241851Z 31004KT 10SM FEW240 23/05 A3009 RMK AO2 SLP190 T02330050▲ Up
2U0317KLAX 241753Z 03005KT 10SM FEW230 SCT300 22/01 A3011 RMK AO2 SLP196 T02170006 10217 20117 51010 $▲ Up
2S0317KSAN KLAX▼ Dn
Q00126[LINK ACK]▲ Up
Q00028[LINK TEST]▼ Dn


AIRCRAFT HISTORY
FLIGHT DATE FLIGHT NO. ORIGIN DESTINATION CLEARED ROUTE BLOCK TIME FLIGHT TIME FUEL USED PILOT
2020-11-13ASA901KSEA KBUR KSEA NEVJO SUMMA SMIGE SUNBE FRA REBRG MMTLY CRUUE EEAZY HIHWY MAIDD PEPRZ HEVVY ROKKR ZEPPE IVINS MIKEI RW082.1 hrs1.9 hrs11,576 lbDan Downs
2020-07-14ASA1202KPDX KSEA KPDX COUGA KRIEG KSEA0.7 hrs0.6 hrs4,211 lbMichael Roth
2020-05-23ASA522KPAE KPDX 0.9 hrs0.6 hrs5,096 lbCharles Harris
2020-02-01ASA201KIDA KPAE 1.7 hrs1.5 hrs8,300 lbJhan Jensen
2020-01-23ASA327KRNO KIDA 1.7 hrs1.6 hrs9,136 lbJhan Jensen
2020-01-15ASA99KEGE KRNO 1.9 hrs1.6 hrs9,698 lbJhan Jensen
2020-01-11ASA182KJAC KEGE 1.2 hrs0.9 hrs6,449 lbJhan Jensen
2020-01-03ASA68KGPI KJAC 1.4 hrs1 hrs5,452 lbJhan Jensen
2020-01-03ASA67CYYC KGPI 0.8 hrs0.7 hrs4,803 lbJhan Jensen
2019-11-24ASA1124KLAX CYYC 1.1 hrs0.8 hrs41,517 lbRandall Smith
2019-11-24ASA9722KSAN KLAX 0.6 hrs0.4 hrs3,440 lbKyle Weber
2019-11-24ASA135KSLC KSAN 1.6 hrs1.5 hrs8,755 lbJhan Jensen
2019-11-16ASA172KSEA KSLC 1.8 hrs1.6 hrs9,842 lbJhan Jensen
2019-11-07ASA955KLAS KSEA 2.5 hrs2.3 hrs13,750 lbAllan Burek